windsock image

Welcome to Bigfield Strip.

anemometer image
     

 Help for dials.  
 
Local Met:

Wind:   
10 Min average:  
225 ° / 8.0 kts (10.4)
229° / 9.3

Temperature:  
12.6°C C
Dew Point:  
10.6°C C
QNH:  
Trend:  
1019.9 mb mb
-0.2mb/hr
BigField Strip. This image updates approximately every minute, it can have a two minute delay.  
 

Humidity:  
88 %
Sunrise:   05:45z
Sunset:   18:32z
Updated:  
  UTC
 
   More met info, trends, radar, history etc. available here   

LUTON Metar   EGGW 292220Z AUTO 19008KT 150V220 9999 BKN025 12/10 Q1021
 
  TAF   2017/03/29 20:03 TAF AMD TAF AMD EGGW 292001Z 2920/3018 21011KT 9999 FEW012 SCT020 TEMPO 2920/2924 BKN012 PROB30 TEMPO 3000/3006 23015G25KT 9000 -SHRA BKN012
 
BENSON Metar   EGUB 292150Z 17008KT 9999 BKN024 13/10 Q1021 WHT TEMPO FEW024 BLU
 
  TAF   2017/03/29 18:09 TAF TAF EGUB 291654Z 2918/2923 20012KT 9999 BKN018 TEMPO 2919/2923 BKN030 PROB30 TEMPO 2919/2923 7000 -RADZ
 
Big Field view 1 icon   Big Field view 2 icon   Big Field view 3 icon   Chart AL3a in PDF icon   Chart AL3a in Word icon

WARNING:
This information is provided by the Airstrip unofficial weather station, DO NOT depend on the data provided here for any purpose.
This page is updated for latest Metars & TAF's every 5 minutes. Refresh the browser to check for the lastest.
Page designed for a minimum browser size of 1024x768.
© Copyright 2017 BigField Strip. This page auto generated 22:41 UTC - 29/03/2017   Contact Us
Valid HTML 4.01 Transitional     Windows uptime: 2 Days 20 Hours 9 Minutes 23 Seconds    WD started: 02:37 27/03/17    Free memory: 1450MB     Valid CSS!